createdAt,value
2016-12-27T00:00:34.167Z,27.3
2016-12-27T00:01:34.100Z,27.3
2016-12-27T00:02:34.360Z,27.3
2016-12-27T00:03:35.975Z,27.3
2016-12-27T00:04:34.498Z,27.2
2016-12-27T00:05:36.103Z,27.2
2016-12-27T00:06:36.121Z,27.3
2016-12-27T00:07:36.053Z,27.3
2016-12-27T00:08:34.700Z,27.3
2016-12-27T00:09:36.271Z,27.2
2016-12-27T00:10:34.890Z,27.3
2016-12-27T00:11:36.347Z,27.3
2016-12-27T00:12:34.929Z,27.3
2016-12-27T00:13:36.475Z,27.3
2016-12-27T00:14:36.643Z,27.3
2016-12-27T00:15:34.981Z,27.3
2016-12-27T00:16:36.684Z,27.3
2016-12-27T00:17:36.866Z,27.3
2016-12-27T00:18:36.869Z,27.2
2016-12-27T00:19:36.811Z,27.3
2016-12-27T00:20:35.240Z,27.3
2016-12-27T00:21:36.985Z,27.3
2016-12-27T00:22:36.974Z,27.3
2016-12-27T00:23:37.004Z,27.3
2016-12-27T00:24:37.131Z,27.3
2016-12-27T00:25:37.100Z,27.3
2016-12-27T00:26:35.569Z,27.3
2016-12-27T00:27:35.525Z,27.3
2016-12-27T00:28:35.645Z,27.3
2016-12-27T00:29:35.826Z,27.3
2016-12-27T00:30:35.777Z,27.3
2016-12-27T00:31:35.945Z,27.3
2016-12-27T00:32:37.408Z,27.3
2016-12-27T00:33:35.882Z,27.2
2016-12-27T00:34:35.968Z,27.3
2016-12-27T00:35:36.194Z,27.3
2016-12-27T00:36:36.123Z,27.2
2016-12-27T00:37:37.935Z,27.3
2016-12-27T00:38:36.279Z,27.3
2016-12-27T00:39:38.097Z,27.2
2016-12-27T00:40:38.172Z,27.3
2016-12-27T00:41:36.518Z,27.3
2016-12-27T00:42:38.285Z,27.2
2016-12-27T00:43:38.275Z,27.2
2016-12-27T00:44:38.512Z,27.2
2016-12-27T00:45:39.025Z,27.2
2016-12-27T00:46:38.492Z,27.2
2016-12-27T00:47:37.782Z,27.2
2016-12-27T00:48:37.023Z,27.2
2016-12-27T00:49:38.716Z,27.2
2016-12-27T00:50:38.778Z,27.2
2016-12-27T00:51:38.848Z,27.3
2016-12-27T00:52:37.220Z,27.3
2016-12-27T00:53:38.964Z,27.2
2016-12-27T00:54:37.480Z,27.2
2016-12-27T00:55:39.007Z,27.2
2016-12-27T00:56:38.983Z,27.2
2016-12-27T00:57:37.528Z,27.2
2016-12-27T00:58:39.290Z,27.2
2016-12-27T00:59:37.734Z,27.2
2016-12-27T01:00:39.336Z,27.2
2016-12-27T01:01:39.304Z,27.2
2016-12-27T01:02:37.889Z,27.2
2016-12-27T01:03:39.415Z,27.2
2016-12-27T01:04:39.448Z,27.2
2016-12-27T01:05:39.560Z,27.2
2016-12-27T01:06:39.577Z,27.2
2016-12-27T01:07:39.648Z,27.2
2016-12-27T01:08:38.159Z,27.2
2016-12-27T01:09:38.243Z,27.2
2016-12-27T01:10:39.781Z,27.2
2016-12-27T01:11:39.928Z,27.2
2016-12-27T01:12:39.927Z,27.2
2016-12-27T01:13:39.994Z,27.2
2016-12-27T01:14:40.066Z,27.2
2016-12-27T01:15:38.468Z,27.2
2016-12-27T01:16:40.277Z,27.2
2016-12-27T01:17:38.758Z,27.2
2016-12-27T01:18:40.307Z,27.2
2016-12-27T01:19:40.430Z,27.2
2016-12-27T01:20:40.505Z,27.2
2016-12-27T01:21:40.462Z,27.2
2016-12-27T01:22:40.495Z,27.2
2016-12-27T01:23:39.076Z,27.2
2016-12-27T01:24:40.639Z,27.2
2016-12-27T01:25:39.017Z,27.2
2016-12-27T01:26:39.049Z,27.2
2016-12-27T01:27:40.701Z,27.2
2016-12-27T01:28:40.893Z,27.2
2016-12-27T01:29:39.376Z,27.2
2016-12-27T01:30:39.420Z,27.2
2016-12-27T01:31:39.502Z,27.2
2016-12-27T01:32:41.062Z,27.2
2016-12-27T01:33:41.135Z,27.2
2016-12-27T01:34:41.204Z,27.2
2016-12-27T01:35:41.407Z,27.2
2016-12-27T01:36:41.299Z,27.2
2016-12-27T01:37:39.775Z,27.2
2016-12-27T01:38:39.911Z,27.2
2016-12-27T01:39:39.959Z,27.2
2016-12-27T01:40:41.431Z,27.2
2016-12-27T01:41:41.559Z,27.2
2016-12-27T01:42:40.137Z,27.2
2016-12-27T01:43:40.217Z,27.2
2016-12-27T01:44:41.858Z,27.2
2016-12-27T01:45:40.314Z,27.2
2016-12-27T01:46:40.326Z,27.2
2016-12-27T01:47:41.962Z,27.2
2016-12-27T01:48:40.360Z,27.2
2016-12-27T01:49:40.984Z,27.2
2016-12-27T01:50:41.992Z,27.2
2016-12-27T01:51:40.442Z,27.2
2016-12-27T01:52:40.307Z,27.2
2016-12-27T01:53:40.393Z,27.2
2016-12-27T01:54:42.047Z,27.2
2016-12-27T01:55:40.513Z,27.2
2016-12-27T01:56:40.577Z,27.2
2016-12-27T01:57:42.180Z,27.2
2016-12-27T01:58:40.596Z,27.2
2016-12-27T01:59:40.685Z,27.2
2016-12-27T02:00:40.688Z,27.2
2016-12-27T02:01:40.692Z,27.2
2016-12-27T02:02:40.713Z,27.2
2016-12-27T02:03:40.753Z,27.2
2016-12-27T02:04:40.816Z,27.2
2016-12-27T02:05:42.437Z,27.2
2016-12-27T02:06:42.569Z,27.2
2016-12-27T02:07:42.523Z,27.2
2016-12-27T02:08:42.662Z,27.2
2016-12-27T02:09:42.725Z,27.2
2016-12-27T02:10:42.770Z,27.2
2016-12-27T02:11:41.191Z,27.2
2016-12-27T02:12:41.174Z,27.2
2016-12-27T02:13:41.397Z,27.2
2016-12-27T02:14:41.491Z,27.2
2016-12-27T02:15:41.294Z,27.2
2016-12-27T02:16:43.004Z,27.2
2016-12-27T02:17:41.415Z,27.2
2016-12-27T02:18:41.572Z,27.2
2016-12-27T02:19:43.134Z,27.2
2016-12-27T02:20:43.193Z,27.2
2016-12-27T02:21:43.309Z,27.2
2016-12-27T02:22:41.706Z,27.2
2016-12-27T02:23:41.752Z,27.2
2016-12-27T02:24:41.765Z,27.2
2016-12-27T02:25:41.994Z,27.2
2016-12-27T02:26:43.689Z,27.2
2016-12-27T02:27:43.720Z,27.2
2016-12-27T02:28:42.339Z,27.1
2016-12-27T02:29:42.200Z,27.2
2016-12-27T02:30:43.910Z,27.2
2016-12-27T02:31:43.816Z,27.2
2016-12-27T02:32:42.564Z,27.2
2016-12-27T02:33:42.487Z,27.2
2016-12-27T02:34:44.261Z,27.2
2016-12-27T02:35:42.555Z,27.2
2016-12-27T02:36:44.219Z,27.2
2016-12-27T02:37:42.484Z,27.2
2016-12-27T02:38:42.676Z,27.2
2016-12-27T02:39:44.264Z,27.2
2016-12-27T02:40:42.641Z,27.2
2016-12-27T02:41:44.394Z,27.2
2016-12-27T02:42:42.778Z,27.2
2016-12-27T02:43:44.520Z,27.2
2016-12-27T02:44:42.863Z,27.1
2016-12-27T02:45:43.185Z,27.2
2016-12-27T02:46:43.408Z,27.2
2016-12-27T02:47:44.917Z,27.1
2016-12-27T02:48:45.704Z,27.2
2016-12-27T02:49:44.821Z,27.2
2016-12-27T02:50:44.957Z,27.1
2016-12-27T02:51:43.513Z,27.2
2016-12-27T02:52:45.069Z,27.2
2016-12-27T02:53:45.041Z,27.1
2016-12-27T02:54:43.467Z,27.1
2016-12-27T02:55:43.487Z,27.2
2016-12-27T02:56:43.681Z,27.2
2016-12-27T02:57:43.797Z,27.1
2016-12-27T02:58:45.456Z,27.2
2016-12-27T02:59:44.049Z,27.2
2016-12-27T03:00:43.962Z,27.1
2016-12-27T03:01:43.821Z,27.2
2016-12-27T03:02:45.427Z,27.2
2016-12-27T03:03:45.524Z,27.2
2016-12-27T03:04:44.069Z,27.2
2016-12-27T03:05:45.512Z,27.2
2016-12-27T03:06:45.595Z,27.2
2016-12-27T03:07:44.187Z,27.2
2016-12-27T03:08:45.676Z,27.2
2016-12-27T03:09:44.248Z,27.2
2016-12-27T03:10:45.836Z,27.2
2016-12-27T03:11:45.975Z,27.1
2016-12-27T03:12:44.307Z,27.1
2016-12-27T03:13:44.444Z,27.2
2016-12-27T03:14:44.452Z,27.2
2016-12-27T03:15:46.192Z,27.2
2016-12-27T03:16:46.286Z,27.2
2016-12-27T03:17:44.848Z,27.2
2016-12-27T03:18:45.752Z,27.2
2016-12-27T03:19:44.877Z,27.1
2016-12-27T03:20:44.774Z,27.1
2016-12-27T03:21:44.902Z,27.2
2016-12-27T03:22:46.543Z,27.2
2016-12-27T03:23:44.986Z,27.2
2016-12-27T03:24:45.178Z,27.2
2016-12-27T03:25:46.648Z,27.2
2016-12-27T03:26:46.774Z,27.2
2016-12-27T03:27:45.178Z,27.2
2016-12-27T03:28:45.193Z,27.2
2016-12-27T03:29:46.979Z,27.2
2016-12-27T03:30:47.019Z,27.2
2016-12-27T03:31:47.026Z,27.1
2016-12-27T03:32:47.033Z,27.2
2016-12-27T03:33:47.140Z,27.2
2016-12-27T03:34:45.586Z,27.2
2016-12-27T03:35:45.503Z,27.1
2016-12-27T03:36:45.622Z,27.1
2016-12-27T03:37:45.762Z,27.2
2016-12-27T03:38:45.983Z,27.2
2016-12-27T03:39:47.848Z,27.2
2016-12-27T03:40:49.176Z,27.2
2016-12-27T03:41:48.628Z,27.2
2016-12-27T03:42:49.338Z,27.2
2016-12-27T03:43:48.685Z,27.2
2016-12-27T03:44:48.075Z,27.2
2016-12-27T03:45:46.103Z,27.2
2016-12-27T03:46:46.015Z,27.2
2016-12-27T03:47:47.687Z,27.1
2016-12-27T03:48:46.876Z,27.1
2016-12-27T03:49:47.763Z,27.1
2016-12-27T03:50:47.855Z,27.2
2016-12-27T03:51:48.036Z,27.2
2016-12-27T03:52:46.306Z,27.2
2016-12-27T03:53:46.570Z,27.1
2016-12-27T03:54:48.104Z,27.2
2016-12-27T03:55:46.434Z,27.2
2016-12-27T03:56:48.287Z,27.2
2016-12-27T03:57:48.252Z,27.2
2016-12-27T03:58:46.750Z,27.2
2016-12-27T03:59:46.845Z,27.1
2016-12-27T04:00:46.852Z,27.1
2016-12-27T04:01:46.673Z,27.2
2016-12-27T04:02:48.394Z,27.2
2016-12-27T04:03:47.124Z,27.2
2016-12-27T04:04:49.197Z,27.2
2016-12-27T04:05:48.518Z,27.2
2016-12-27T04:06:48.613Z,27.2
2016-12-27T04:07:47.242Z,27.2
2016-12-27T04:08:48.963Z,27.1
2016-12-27T04:09:49.114Z,27.2
2016-12-27T04:10:49.129Z,27.2
2016-12-27T04:11:47.490Z,27.2
2016-12-27T04:12:48.988Z,27.2
2016-12-27T04:13:49.141Z,27.2
2016-12-27T04:14:47.531Z,27.2
2016-12-27T04:15:49.152Z,27.2
2016-12-27T04:16:47.596Z,27.2
2016-12-27T04:17:49.218Z,27.1
2016-12-27T04:18:49.352Z,27.2
2016-12-27T04:19:47.687Z,27.2
2016-12-27T04:20:49.326Z,27.1
2016-12-27T04:21:49.333Z,27.1
2016-12-27T04:22:47.905Z,27.1
2016-12-27T04:23:49.561Z,27.2
2016-12-27T04:24:49.502Z,27.2
2016-12-27T04:25:48.190Z,27.1
2016-12-27T04:26:48.059Z,27.2
2016-12-27T04:27:49.846Z,27.2
2016-12-27T04:28:48.131Z,27.1
2016-12-27T04:29:48.315Z,27.1
2016-12-27T04:30:48.344Z,27.1
2016-12-27T04:31:48.441Z,27.1
2016-12-27T04:32:50.073Z,27.1
2016-12-27T04:33:50.035Z,27.1
2016-12-27T04:34:48.634Z,27.1
2016-12-27T04:35:48.648Z,27.1
2016-12-27T04:36:48.609Z,27.1
2016-12-27T04:37:50.257Z,27.1
2016-12-27T04:38:50.423Z,27.1
2016-12-27T04:39:48.671Z,27.1
2016-12-27T04:40:50.319Z,27.2
2016-12-27T04:41:48.927Z,27.1
2016-12-27T04:42:48.957Z,27.1
2016-12-27T04:43:48.968Z,27.1
2016-12-27T04:44:48.912Z,27.1
2016-12-27T04:45:49.035Z,27.1
2016-12-27T04:46:50.812Z,27.1
2016-12-27T04:47:50.694Z,27.1
2016-12-27T04:48:51.469Z,27.1
2016-12-27T04:49:50.832Z,27.1
2016-12-27T04:50:50.952Z,27.1
2016-12-27T04:51:49.412Z,27.1
2016-12-27T04:52:50.908Z,27.1
2016-12-27T04:53:49.372Z,27.1
2016-12-27T04:54:49.388Z,27.1
2016-12-27T04:55:49.448Z,27.1
2016-12-27T04:56:51.196Z,27.1
2016-12-27T04:57:51.197Z,27.1
2016-12-27T04:58:51.270Z,27.1
2016-12-27T04:59:49.718Z,27.1
2016-12-27T05:00:51.187Z,27.1
2016-12-27T05:01:49.678Z,27.1
2016-12-27T05:02:49.678Z,27.1
2016-12-27T05:03:49.941Z,27.1
2016-12-27T05:04:51.425Z,27.1
2016-12-27T05:05:51.597Z,27.1
2016-12-27T05:06:51.575Z,27.1
2016-12-27T05:07:51.668Z,27.1
2016-12-27T05:08:51.713Z,27.1
2016-12-27T05:09:49.958Z,27.1
2016-12-27T05:10:50.163Z,27.1
2016-12-27T05:11:51.808Z,27.1
2016-12-27T05:12:51.850Z,27.1
2016-12-27T05:13:50.355Z,27.1
2016-12-27T05:14:50.361Z,27.1
2016-12-27T05:15:50.508Z,27.1
2016-12-27T05:16:52.034Z,27.1
2016-12-27T05:17:52.188Z,27.1
2016-12-27T05:18:52.259Z,27.1
2016-12-27T05:19:50.763Z,27.1
2016-12-27T05:20:52.322Z,27.1
2016-12-27T05:21:52.411Z,27.1
2016-12-27T05:22:52.441Z,27.1
2016-12-27T05:23:51.001Z,27.1
2016-12-27T05:24:52.561Z,27.1
2016-12-27T05:25:51.084Z,27.1
2016-12-27T05:26:50.967Z,27.1
2016-12-27T05:27:52.684Z,27.1
2016-12-27T05:28:52.619Z,27.1
2016-12-27T05:29:51.230Z,27.1
2016-12-27T05:30:52.834Z,27.1
2016-12-27T05:31:52.756Z,27.1
2016-12-27T05:32:51.225Z,27.1
2016-12-27T05:33:52.966Z,27.1
2016-12-27T05:34:51.386Z,27.1
2016-12-27T05:35:53.086Z,27.1
2016-12-27T05:36:53.089Z,27.1
2016-12-27T05:37:53.071Z,27.1
2016-12-27T05:38:53.219Z,27.1
2016-12-27T05:39:53.204Z,27.1
2016-12-27T05:40:53.317Z,27.1
2016-12-27T05:41:53.276Z,27.1
2016-12-27T05:42:53.712Z,27.1
2016-12-27T05:43:53.478Z,27.1
2016-12-27T05:44:51.776Z,27.1
2016-12-27T05:45:51.846Z,27.1
2016-12-27T05:46:53.506Z,27.1
2016-12-27T05:47:53.716Z,27.1
2016-12-27T05:48:54.593Z,27.1
2016-12-27T05:49:52.266Z,27.1
2016-12-27T05:50:53.800Z,27.1
2016-12-27T05:51:53.855Z,27.1
2016-12-27T05:52:52.480Z,27.1
2016-12-27T05:53:52.378Z,27.1
2016-12-27T05:54:54.143Z,27.1
2016-12-27T05:55:54.213Z,27.1
2016-12-27T05:56:52.512Z,27.1
2016-12-27T05:57:52.564Z,27.1
2016-12-27T05:58:54.195Z,27.1
2016-12-27T05:59:52.667Z,27.1
2016-12-27T06:00:54.421Z,27.2
2016-12-27T06:01:54.534Z,27.2
2016-12-27T06:02:54.438Z,27.2
2016-12-27T06:03:54.609Z,27.2
2016-12-27T06:04:52.896Z,27.2
2016-12-27T06:05:54.619Z,27.2
2016-12-27T06:06:54.534Z,27.2
2016-12-27T06:07:52.976Z,27.2
2016-12-27T06:08:54.742Z,27.2
2016-12-27T06:09:53.053Z,27.2
2016-12-27T06:10:53.189Z,27.2
2016-12-27T06:11:54.755Z,27.2
2016-12-27T06:12:53.240Z,27.2
2016-12-27T06:13:54.982Z,27.2
2016-12-27T06:14:54.896Z,27.2
2016-12-27T06:15:53.315Z,27.2
2016-12-27T06:16:53.340Z,27.2
2016-12-27T06:32:55.941Z,27.2
2016-12-27T06:33:56.026Z,27.2
2016-12-27T06:34:54.524Z,27.2
2016-12-27T06:35:54.407Z,27.2
2016-12-27T06:36:56.072Z,27.2
2016-12-27T06:38:59.404Z,27.2
2016-12-27T06:39:56.270Z,27.2
2016-12-27T06:40:54.794Z,27.2
2016-12-27T06:41:54.802Z,27.2
2016-12-27T06:42:54.724Z,27.2
2016-12-27T06:43:54.709Z,27.2
2016-12-27T06:44:57.361Z,27.2
2016-12-27T06:45:55.788Z,27.2
2016-12-27T06:46:59.203Z,27.2
2016-12-27T06:47:56.586Z,27.3
2016-12-27T06:48:57.263Z,27.3
2016-12-27T06:49:55.004Z,27.3
2016-12-27T06:50:55.217Z,27.2
2016-12-27T06:51:55.103Z,27.3
2016-12-27T06:52:55.263Z,27.3
2016-12-27T06:53:56.799Z,27.3
2016-12-27T06:54:55.169Z,27.3
2016-12-27T06:55:55.175Z,27.3
2016-12-27T06:56:55.253Z,27.3
2016-12-27T06:57:55.299Z,27.2
2016-12-27T06:58:55.445Z,27.3
2016-12-27T06:59:55.536Z,27.3
2016-12-27T07:00:57.166Z,27.2
2016-12-27T07:01:57.050Z,27.3
2016-12-27T07:02:57.087Z,27.3
2016-12-27T07:03:57.226Z,27.3
2016-12-27T07:04:55.645Z,27.3
2016-12-27T07:05:55.671Z,27.3
2016-12-27T07:06:55.810Z,27.3
2016-12-27T07:07:57.355Z,27.3
2016-12-27T07:08:55.945Z,27.3
2016-12-27T07:09:57.537Z,27.3
2016-12-27T07:10:57.603Z,27.3
2016-12-27T07:11:57.575Z,27.3
2016-12-27T07:12:56.159Z,27.3
2016-12-27T07:13:57.835Z,27.3
2016-12-27T07:14:56.283Z,27.2
2016-12-27T07:15:56.305Z,27.3
2016-12-27T07:16:56.232Z,27.3
2016-12-27T07:17:57.884Z,27.3
2016-12-27T07:18:58.028Z,27.3
2016-12-27T07:19:56.412Z,27.3
2016-12-27T07:20:56.418Z,27.3
2016-12-27T07:21:58.020Z,27.3
2016-12-27T07:22:58.036Z,27.3
2016-12-27T07:23:56.576Z,27.3
2016-12-27T07:24:56.657Z,27.3
2016-12-27T07:25:56.620Z,27.3
2016-12-27T07:26:56.755Z,27.3
2016-12-27T07:27:56.765Z,27.3
2016-12-27T07:28:58.442Z,27.3
2016-12-27T07:29:56.874Z,27.3
2016-12-27T07:30:56.825Z,27.3
2016-12-27T07:31:58.440Z,27.3
2016-12-27T07:32:57.020Z,27.3
2016-12-27T07:33:58.613Z,27.3
2016-12-27T07:34:58.647Z,27.3
2016-12-27T07:35:57.115Z,27.3
2016-12-27T07:36:57.032Z,27.3
2016-12-27T07:37:57.066Z,27.3
2016-12-27T07:38:59.228Z,27.3
2016-12-27T07:39:58.825Z,27.3
2016-12-27T07:40:57.188Z,27.3
2016-12-27T07:41:57.231Z,27.3
2016-12-27T07:42:58.888Z,27.3
2016-12-27T07:57:59.723Z,27.3
2016-12-27T07:58:58.301Z,27.2
2016-12-27T07:59:58.357Z,27.3
2016-12-27T08:00:58.415Z,27.3
2016-12-27T08:01:59.914Z,27.3
2016-12-27T08:03:00.036Z,27.3
2016-12-27T08:05:00.234Z,27.3
2016-12-27T08:06:00.171Z,27.3
2016-12-27T08:06:58.593Z,27.3
2016-12-27T08:09:11.339Z,27.3
2016-12-27T08:09:58.828Z,27.3
2016-12-27T08:11:00.438Z,27.3
2016-12-27T08:11:58.882Z,27.3
2016-12-27T08:13:00.593Z,27.4
2016-12-27T08:14:00.706Z,27.4
2016-12-27T08:16:00.789Z,27.4
2016-12-27T08:17:00.827Z,27.4
2016-12-27T08:18:00.752Z,27.4
2016-12-27T08:18:59.247Z,27.4
2016-12-27T08:19:59.392Z,27.4
2016-12-27T08:21:01.007Z,27.4
2016-12-27T08:22:01.059Z,27.4
2016-12-27T08:23:00.966Z,27.4
2016-12-27T08:24:01.100Z,27.4
2016-12-27T08:24:59.545Z,27.5
2016-12-27T08:25:59.668Z,27.5
2016-12-27T08:27:01.272Z,27.4
2016-12-27T08:28:01.281Z,27.4
2016-12-27T08:28:59.818Z,27.5
2016-12-27T08:30:01.340Z,27.5
2016-12-27T08:31:01.429Z,27.5
2016-12-27T08:32:01.463Z,27.4
2016-12-27T08:32:59.831Z,27.4
2016-12-27T08:33:59.915Z,27.5
2016-12-27T08:34:59.961Z,27.5
2016-12-27T08:36:01.555Z,27.5
2016-12-27T08:37:00.003Z,27.5
2016-12-27T08:38:01.744Z,27.5
2016-12-27T08:39:01.806Z,27.5
2016-12-27T08:40:00.288Z,27.5
2016-12-27T08:41:01.837Z,27.5
2016-12-27T08:42:01.824Z,27.5
2016-12-27T08:43:01.963Z,27.5
2016-12-27T08:44:02.058Z,27.5
2016-12-27T08:45:00.637Z,27.5
2016-12-27T08:46:02.131Z,27.5
2016-12-27T08:47:02.182Z,27.5
2016-12-27T08:48:01.246Z,27.5
2016-12-27T08:49:00.794Z,27.5
2016-12-27T08:50:00.719Z,27.5
2016-12-27T08:51:00.944Z,27.5
2016-12-27T08:52:02.470Z,27.5
2016-12-27T08:53:02.657Z,27.5
2016-12-27T08:54:01.146Z,27.5
2016-12-27T08:55:02.775Z,27.5
2016-12-27T08:56:01.254Z,27.5
2016-12-27T08:57:01.220Z,27.5
2016-12-27T08:58:02.833Z,27.5
2016-12-27T08:59:02.943Z,27.5
2016-12-27T09:00:01.420Z,27.5
2016-12-27T09:01:03.018Z,27.6
2016-12-27T09:02:03.169Z,27.6
2016-12-27T09:03:01.510Z,27.6
2016-12-27T09:04:03.222Z,27.6
2016-12-27T09:05:03.139Z,27.6
2016-12-27T09:06:03.153Z,27.6
2016-12-27T09:07:01.759Z,27.6
2016-12-27T09:08:01.817Z,27.6
2016-12-27T09:09:03.441Z,27.7
2016-12-27T09:10:01.911Z,27.7
2016-12-27T09:11:03.470Z,27.7
2016-12-27T09:12:03.482Z,27.7
2016-12-27T09:13:01.967Z,27.7
2016-12-27T09:14:02.095Z,27.7
2016-12-27T09:15:02.210Z,27.7
2016-12-27T09:16:03.849Z,27.7
2016-12-27T09:17:03.772Z,27.7
2016-12-27T09:18:02.249Z,27.8
2016-12-27T09:19:04.036Z,27.8
2016-12-27T09:20:03.981Z,27.8
2016-12-27T09:21:02.472Z,27.8
2016-12-27T09:22:04.163Z,27.8
2016-12-27T09:23:02.669Z,27.7
2016-12-27T09:24:02.786Z,27.8
2016-12-27T09:25:04.465Z,27.8
2016-12-27T09:26:02.828Z,27.8
2016-12-27T09:27:03.016Z,27.9
2016-12-27T09:28:03.035Z,27.9
2016-12-27T09:29:04.629Z,27.9
2016-12-27T09:30:04.606Z,27.9
2016-12-27T09:31:03.050Z,27.9
2016-12-27T09:32:04.729Z,28
2016-12-27T09:33:03.344Z,28
2016-12-27T09:34:04.959Z,28
2016-12-27T09:35:05.438Z,28
2016-12-27T09:36:03.347Z,28
2016-12-27T09:37:03.408Z,28.1
2016-12-27T09:38:03.478Z,28.1
2016-12-27T09:47:50.731Z,27.9
2016-12-27T09:48:50.692Z,27.9
2016-12-27T09:49:50.934Z,27.9
2016-12-27T09:50:50.861Z,27.9
2016-12-27T09:51:50.943Z,27.9
2016-12-27T09:52:49.551Z,27.9
2016-12-27T09:53:51.142Z,27.9
2016-12-27T09:54:51.122Z,27.9
2016-12-27T09:55:49.735Z,27.9
2016-12-27T09:56:49.680Z,27.9
2016-12-27T09:57:49.877Z,28
2016-12-27T09:59:51.504Z,28.1
2016-12-27T10:00:51.540Z,28.1
2016-12-27T10:01:51.523Z,28.1
2016-12-27T10:02:51.739Z,28.2
2016-12-27T10:03:50.231Z,28.2
2016-12-27T10:04:50.248Z,28.3
2016-12-27T10:05:50.419Z,28.3
2016-12-27T10:06:51.903Z,28.3
2016-12-27T10:07:50.445Z,28.3
2016-12-27T10:08:51.158Z,28.3
2016-12-27T10:09:52.119Z,28.4
2016-12-27T10:10:52.218Z,28.4
2016-12-27T10:11:50.707Z,28.4
2016-12-27T10:12:52.232Z,28.5
2016-12-27T10:13:50.781Z,28.5
2016-12-27T10:14:50.841Z,28.5
2016-12-27T10:15:50.890Z,28.5
2016-12-27T10:16:50.942Z,28.6
2016-12-27T10:17:50.895Z,28.6
2016-12-27T10:18:51.001Z,28.6
2016-12-27T10:19:50.961Z,28.7
2016-12-27T10:20:51.067Z,28.7
2016-12-27T10:21:52.583Z,28.8
2016-12-27T10:22:52.595Z,28.7
2016-12-27T10:23:52.763Z,28.7
2016-12-27T10:24:51.329Z,28.7
2016-12-27T10:25:51.417Z,28.7
2016-12-27T10:26:51.475Z,28.6
2016-12-27T10:31:51.731Z,28.5
2016-12-27T10:32:51.844Z,28.5
2016-12-27T10:33:51.704Z,28.5
2016-12-27T10:34:53.525Z,28.5
2016-12-27T10:35:53.598Z,28.5
2016-12-27T10:36:51.936Z,28.5
2016-12-27T10:37:52.129Z,28.5
2016-12-27T10:38:53.639Z,28.5
2016-12-27T10:39:52.067Z,28.5
2016-12-27T10:40:53.716Z,28.4
2016-12-27T10:41:52.225Z,28.5
2016-12-27T10:42:52.352Z,28.5
2016-12-27T10:43:54.020Z,28.5
2016-12-27T10:44:53.282Z,28.4
2016-12-27T10:45:55.082Z,28.4
2016-12-27T10:46:54.341Z,28.4
2016-12-27T10:47:54.497Z,28.4
2016-12-27T12:02:58.268Z,28.4
2016-12-27T12:03:56.863Z,28.4
2016-12-27T12:04:58.449Z,28.5
2016-12-27T12:05:58.544Z,28.5
2016-12-27T12:06:57.004Z,28.5
2016-12-27T12:07:57.103Z,28.5
2016-12-27T12:08:57.317Z,28.5
2016-12-27T12:09:57.250Z,28.5
2016-12-27T12:10:59.032Z,28.5
2016-12-27T12:11:58.976Z,28.5
2016-12-27T12:12:58.998Z,28.4
2016-12-27T12:13:57.445Z,28.5
2016-12-27T12:14:59.172Z,28.5
2016-12-27T12:15:59.190Z,28.5
2016-12-27T12:16:59.111Z,28.5
2016-12-27T12:17:57.653Z,28.5
2016-12-27T12:18:59.193Z,28.5
2016-12-27T12:19:59.289Z,28.5
2016-12-27T12:20:59.288Z,28.4
2016-12-27T12:21:57.813Z,28.4
2016-12-27T12:22:59.430Z,28.4
2016-12-27T12:23:58.483Z,28.4
2016-12-27T12:24:58.090Z,28.4
2016-12-27T12:25:59.723Z,28.4
2016-12-27T12:26:59.667Z,28.4
2016-12-27T12:27:58.304Z,28.4
2016-12-27T12:28:59.812Z,28.4
2016-12-27T12:29:58.342Z,28.3
2016-12-27T12:30:59.911Z,28.3
2016-12-27T12:31:58.402Z,28.4
2016-12-27T12:32:58.372Z,28.4
2016-12-27T12:34:00.036Z,28.4
2016-12-27T12:34:58.577Z,28.3
2016-12-27T12:36:00.198Z,28.3
2016-12-27T12:36:58.562Z,28.3
2016-12-27T12:38:00.356Z,28.3
2016-12-27T12:38:58.833Z,28.3
2016-12-27T12:40:00.485Z,28.3
2016-12-27T12:40:58.878Z,28.3
2016-12-27T12:41:58.828Z,28.3
2016-12-27T12:43:00.558Z,28.3
2016-12-27T12:44:00.518Z,28.3
2016-12-27T12:44:58.954Z,28.3
2016-12-27T12:46:00.695Z,28.3
2016-12-27T12:46:59.156Z,28.3
2016-12-27T12:47:59.242Z,28.3
2016-12-27T12:49:00.735Z,28.3
2016-12-27T12:50:00.869Z,28.3
2016-12-27T12:50:59.372Z,28.3
2016-12-27T12:51:59.403Z,28.3
2016-12-27T12:52:59.307Z,28.3
2016-12-27T12:54:01.078Z,28.3
2016-12-27T12:55:01.123Z,28.3
2016-12-27T12:55:59.610Z,28.3
2016-12-27T12:56:59.673Z,28.3
2016-12-27T12:57:59.605Z,28.2
2016-12-27T12:58:59.689Z,28.2
2016-12-27T12:59:59.751Z,28.2
2016-12-27T13:01:00.015Z,28.2
2016-12-27T13:02:01.595Z,28.2
2016-12-27T13:03:01.525Z,28.2
2016-12-27T13:04:01.510Z,28.2
2016-12-27T13:05:00.009Z,28.2
2016-12-27T13:06:00.192Z,28.2
2016-12-27T13:07:01.820Z,28.2
2016-12-27T13:08:00.204Z,28.2
2016-12-27T13:09:00.139Z,28.2
2016-12-27T13:10:00.836Z,28.2
2016-12-27T13:11:00.383Z,28.2
2016-12-27T13:12:01.944Z,28.3
2016-12-27T13:13:00.474Z,28.3
2016-12-27T13:14:00.393Z,28.3
2016-12-27T13:15:00.485Z,28.3
2016-12-27T13:16:00.540Z,28.3
2016-12-27T13:17:00.441Z,28.3
2016-12-27T13:18:02.311Z,28.3
2016-12-27T13:19:02.226Z,28.3
2016-12-27T13:20:00.665Z,28.3
2016-12-27T13:21:00.840Z,28.3
2016-12-27T13:22:02.370Z,28.3
2016-12-27T13:23:00.932Z,28.3
2016-12-27T13:24:00.961Z,28.3
2016-12-27T13:25:00.882Z,28.3
2016-12-27T13:26:02.615Z,28.4
2016-12-27T13:27:01.000Z,28.4
2016-12-27T13:28:01.088Z,28.4
2016-12-27T13:29:02.830Z,28.3
2016-12-27T13:30:02.821Z,28.3
2016-12-27T13:31:02.936Z,28.4
2016-12-27T13:32:02.971Z,28.3
2016-12-27T13:33:01.366Z,28.3
2016-12-27T13:34:01.362Z,28.4
2016-12-27T13:35:01.522Z,28.4
2016-12-27T13:36:01.511Z,28.4
2016-12-27T13:37:01.512Z,28.4
2016-12-27T13:38:03.106Z,28.4
2016-12-27T13:39:01.601Z,28.3
2016-12-27T13:40:03.260Z,28.4
2016-12-27T13:41:01.881Z,28.3
2016-12-27T13:42:03.570Z,28.4
2016-12-27T13:43:02.083Z,28.3
2016-12-27T13:44:02.035Z,28.3
2016-12-27T13:45:02.082Z,28.3
2016-12-27T13:46:02.113Z,28.3
2016-12-27T13:47:02.149Z,28.3
2016-12-27T13:48:03.835Z,28.3
2016-12-27T13:49:02.156Z,28.3
2016-12-27T13:50:02.327Z,28.3
2016-12-27T13:51:03.948Z,28.3
2016-12-27T13:52:03.971Z,28.3
2016-12-27T13:53:02.512Z,28.3
2016-12-27T13:54:04.167Z,28.3
2016-12-27T13:55:02.687Z,28.3
2016-12-27T13:56:02.847Z,28.3
2016-12-27T13:57:04.433Z,28.3
2016-12-27T13:58:02.757Z,28.3
2016-12-27T13:59:02.781Z,28.3
2016-12-27T14:00:04.414Z,28.3
2016-12-27T14:01:02.880Z,28.3
2016-12-27T14:02:04.520Z,28.3
2016-12-27T14:03:04.644Z,28.2
2016-12-27T14:04:04.556Z,28.3
2016-12-27T14:05:03.188Z,28.3
2016-12-27T14:06:04.629Z,28.3
2016-12-27T14:07:04.786Z,28.2
2016-12-27T14:08:03.320Z,28.3
2016-12-27T14:09:04.853Z,28.2
2016-12-27T14:10:05.023Z,28.2
2016-12-27T14:11:04.970Z,28.2
2016-12-27T14:12:03.579Z,28.2
2016-12-27T14:13:03.501Z,28.2
2016-12-27T14:14:05.179Z,28.2
2016-12-27T14:15:03.565Z,28.2
2016-12-27T14:16:05.346Z,28.2
2016-12-27T14:17:05.299Z,28.2
2016-12-27T14:18:05.265Z,28.2
2016-12-27T14:19:05.339Z,28.1
2016-12-27T14:20:05.459Z,28.2
2016-12-27T14:21:05.506Z,28.2
2016-12-27T14:22:03.829Z,28.2
2016-12-27T14:23:05.478Z,28.2
2016-12-27T14:24:03.937Z,28.2
2016-12-27T14:25:05.611Z,28.2
2016-12-27T14:26:04.095Z,28.2
2016-12-27T14:27:04.306Z,28.1
2016-12-27T14:28:04.205Z,28.2
2016-12-27T14:29:04.304Z,28.2
2016-12-27T14:30:04.474Z,28.1
2016-12-27T14:31:04.562Z,28.1
2016-12-27T14:32:04.461Z,28.1
2016-12-27T14:33:06.106Z,28.1
2016-12-27T14:34:04.699Z,28.1
2016-12-27T14:35:04.659Z,28.1
2016-12-27T14:36:06.402Z,28.1
2016-12-27T14:37:04.974Z,28.1
2016-12-27T14:38:06.598Z,28.1
2016-12-27T14:39:05.117Z,28.1
2016-12-27T14:40:06.625Z,28.2
2016-12-27T14:41:05.183Z,28.2
2016-12-27T14:42:05.379Z,28.2
2016-12-27T14:43:06.830Z,28.2
2016-12-27T14:44:05.356Z,28.2
2016-12-27T14:45:06.865Z,28.2
2016-12-27T14:46:05.353Z,28.2
2016-12-27T14:47:05.449Z,28.2
2016-12-27T14:48:07.050Z,28.2
2016-12-27T14:49:05.420Z,28.2
2016-12-27T14:50:06.984Z,28.2
2016-12-27T14:51:05.581Z,28.2
2016-12-27T14:52:07.216Z,28.2
2016-12-27T14:53:07.175Z,28.2
2016-12-27T14:54:05.681Z,28.2
2016-12-27T14:55:05.686Z,28.2
2016-12-27T14:56:07.151Z,28.2
2016-12-27T14:57:05.681Z,28.2
2016-12-27T14:58:05.771Z,28.2
2016-12-27T14:59:05.733Z,28.2
2016-12-27T15:00:07.398Z,28.2
2016-12-27T15:01:05.936Z,28.2
2016-12-27T15:02:05.885Z,28.1
2016-12-27T15:03:05.878Z,28.1
2016-12-27T15:04:07.621Z,28.2
2016-12-27T15:05:06.024Z,28.1
2016-12-27T15:06:07.772Z,28.2
2016-12-27T15:07:07.655Z,28.2
2016-12-27T15:08:06.067Z,28.2
2016-12-27T15:09:06.237Z,28.1
2016-12-27T15:10:06.154Z,28.1
2016-12-27T15:11:06.195Z,28.1
2016-12-27T15:12:07.965Z,28.1
2016-12-27T15:13:07.923Z,28.1
2016-12-27T15:14:08.042Z,28.1
2016-12-27T15:15:06.368Z,28.1
2016-12-27T15:16:08.119Z,28.1
2016-12-27T15:17:08.113Z,28.1
2016-12-27T15:18:06.609Z,28.1
2016-12-27T15:19:08.328Z,28.1
2016-12-27T15:20:06.666Z,28.1